createdAt,value
2018-04-23T00:00:53.682Z,99.90
2018-04-23T00:03:21.160Z,99.90
2018-04-23T00:05:48.641Z,99.90
2018-04-23T00:08:16.916Z,99.90
2018-04-23T00:10:44.394Z,99.90
2018-04-23T00:13:11.873Z,99.90
2018-04-23T00:15:40.108Z,99.90
2018-04-23T00:18:07.592Z,99.90
2018-04-23T00:20:35.068Z,99.90
2018-04-23T00:23:02.677Z,99.90
2018-04-23T00:25:30.914Z,99.90
2018-04-23T00:30:49.026Z,99.90
2018-04-23T00:33:17.276Z,99.90
2018-04-23T00:35:44.769Z,99.90
2018-04-23T00:38:11.860Z,99.90
2018-04-23T00:40:39.630Z,99.90
2018-04-23T00:43:06.687Z,99.90
2018-04-23T00:45:34.173Z,99.90
2018-04-23T00:48:02.433Z,99.90
2018-04-23T00:50:29.909Z,99.90
2018-04-23T00:53:09.548Z,99.90
2018-04-23T00:55:37.136Z,99.90
2018-04-23T00:58:04.594Z,99.90
2018-04-23T01:00:32.074Z,99.90
2018-04-23T01:02:59.642Z,99.90
2018-04-23T01:05:27.154Z,99.90
2018-04-23T01:07:54.685Z,99.90
2018-04-23T01:10:22.255Z,99.90
2018-04-23T01:12:49.743Z,99.90
2018-04-23T01:15:17.975Z,99.90
2018-04-23T01:17:45.457Z,99.90
2018-04-23T01:20:12.953Z,99.90
2018-04-23T01:22:40.511Z,99.90
2018-04-23T01:25:08.093Z,99.90
2018-04-23T01:27:36.337Z,99.90
2018-04-23T01:30:03.845Z,99.90
2018-04-23T01:32:31.309Z,99.90
2018-04-23T01:34:58.795Z,99.90
2018-04-23T01:37:26.278Z,99.90
2018-04-23T01:39:54.513Z,99.90
2018-04-23T01:42:22.025Z,99.90
2018-04-23T01:44:49.574Z,99.90
2018-04-23T01:47:17.064Z,99.90
2018-04-23T01:49:44.543Z,99.90
2018-04-23T01:52:12.805Z,99.90
2018-04-23T01:54:40.392Z,99.90
2018-04-23T01:57:07.947Z,99.90
2018-04-23T01:59:35.429Z,99.90
2018-04-23T02:02:02.899Z,99.90
2018-04-23T02:04:30.371Z,99.90
2018-04-23T02:06:57.926Z,99.90
2018-04-23T02:09:25.514Z,99.90
2018-04-23T02:11:52.997Z,99.90
2018-04-23T02:14:20.461Z,99.90
2018-04-23T02:16:47.953Z,99.90
2018-04-23T02:19:16.220Z,99.90
2018-04-23T02:21:43.705Z,99.90
2018-04-23T02:24:11.958Z,99.90
2018-04-23T02:26:39.453Z,99.90
2018-04-23T02:29:08.350Z,99.90
2018-04-23T02:31:36.591Z,99.90
2018-04-23T02:34:04.094Z,99.90
2018-04-23T02:36:31.577Z,99.90
2018-04-23T02:38:59.079Z,99.90
2018-04-23T02:41:26.557Z,99.90
2018-04-23T02:43:54.032Z,99.90
2018-04-23T02:46:21.501Z,99.90
2018-04-23T02:48:49.014Z,99.90
2018-04-23T02:51:16.493Z,99.90
2018-04-23T02:53:44.762Z,99.90
2018-04-23T02:56:12.802Z,99.90
2018-04-23T02:58:40.289Z,99.90
2018-04-23T03:01:07.790Z,99.90
2018-04-23T03:03:35.287Z,99.90
2018-04-23T03:06:03.547Z,99.90
2018-04-23T03:08:31.018Z,99.90
2018-04-23T03:10:58.609Z,99.90
2018-04-23T03:13:26.164Z,99.90
2018-04-23T03:15:53.739Z,99.90
2018-04-23T03:18:21.201Z,99.90
2018-04-23T03:20:48.695Z,99.90
2018-04-23T03:23:16.258Z,99.90
2018-04-23T03:25:43.830Z,99.90
2018-04-23T03:28:11.298Z,99.90
2018-04-23T03:30:38.765Z,99.90
2018-04-23T03:33:06.226Z,99.90
2018-04-23T03:35:33.706Z,99.90
2018-04-23T03:38:01.195Z,99.90
2018-04-23T03:40:29.547Z,99.90
2018-04-23T03:42:57.040Z,99.90
2018-04-23T03:45:24.590Z,99.90
2018-04-23T03:47:52.162Z,99.90
2018-04-23T03:50:19.652Z,99.90
2018-04-23T03:52:47.229Z,99.90
2018-04-23T03:55:14.694Z,99.90
2018-04-23T03:57:42.191Z,99.90
2018-04-23T04:00:10.426Z,99.90
2018-04-23T04:02:37.902Z,99.90
2018-04-23T04:05:05.386Z,99.90
2018-04-23T04:07:32.893Z,99.90
2018-04-23T04:10:00.355Z,99.90
2018-04-23T04:12:39.658Z,99.90
2018-04-23T04:15:19.052Z,99.90
2018-04-23T04:20:58.577Z,99.90
2018-04-23T04:23:26.057Z,99.90
2018-04-23T04:25:53.531Z,99.90
2018-04-23T04:28:21.012Z,99.90
2018-04-23T04:30:48.475Z,99.90
2018-04-23T04:33:15.952Z,99.90
2018-04-23T04:35:43.484Z,99.90
2018-04-23T04:38:10.920Z,99.90
2018-04-23T04:40:39.171Z,99.90
2018-04-23T04:43:06.791Z,99.90
2018-04-23T04:45:35.033Z,99.90
2018-04-23T04:48:02.607Z,99.90
2018-04-23T04:50:30.189Z,99.90
2018-04-23T04:52:57.641Z,99.90
2018-04-23T04:55:25.113Z,99.90
2018-04-23T04:57:52.592Z,99.90
2018-04-23T05:00:20.080Z,99.90
2018-04-23T05:02:47.641Z,99.90
2018-04-23T05:05:15.205Z,99.90
2018-04-23T05:07:42.659Z,99.90
2018-04-23T05:10:10.148Z,99.90
2018-04-23T05:12:37.709Z,99.90
2018-04-23T05:15:05.280Z,99.90
2018-04-23T05:17:32.756Z,99.90
2018-04-23T05:20:00.222Z,99.90
2018-04-23T05:22:27.724Z,99.90
2018-04-23T05:24:55.268Z,99.90
2018-04-23T05:27:22.852Z,99.90
2018-04-23T05:29:50.397Z,99.90
2018-04-23T05:32:17.863Z,99.90
2018-04-23T05:34:45.360Z,99.90
2018-04-23T05:37:12.827Z,99.90
2018-04-23T05:39:40.290Z,99.90
2018-04-23T05:42:07.792Z,99.90
2018-04-23T05:44:36.034Z,99.90
2018-04-23T05:47:03.530Z,99.90
2018-04-23T05:49:31.084Z,99.90
2018-04-23T05:51:58.548Z,99.90
2018-04-23T05:54:26.014Z,99.90
2018-04-23T05:56:53.586Z,99.90
2018-04-23T05:59:21.068Z,99.90
2018-04-23T06:01:48.645Z,99.90
2018-04-23T06:04:16.134Z,99.90
2018-04-23T06:06:44.369Z,99.90
2018-04-23T06:09:11.841Z,99.90
2018-04-23T06:11:39.337Z,99.90
2018-04-23T06:14:06.948Z,99.90
2018-04-23T06:16:35.184Z,99.90
2018-04-23T06:19:02.655Z,99.90
2018-04-23T06:21:30.138Z,99.90
2018-04-23T06:23:57.605Z,99.90
2018-04-23T06:26:25.158Z,99.90
2018-04-23T06:28:52.744Z,99.90
2018-04-23T06:31:20.303Z,99.90
2018-04-23T06:33:47.784Z,99.90
2018-04-23T06:36:15.249Z,99.90
2018-04-23T06:38:42.729Z,99.90
2018-04-23T06:41:10.300Z,99.90
2018-04-23T06:43:37.770Z,99.90
2018-04-23T06:46:05.355Z,99.90
2018-04-23T06:48:33.618Z,99.90
2018-04-23T06:51:01.074Z,99.90
2018-04-23T06:53:28.548Z,99.90
2018-04-23T06:55:56.026Z,99.90
2018-04-23T06:58:23.521Z,99.90
2018-04-23T07:00:51.077Z,99.90
2018-04-23T07:03:18.531Z,99.90
2018-04-23T07:05:46.122Z,99.90
2018-04-23T07:08:14.399Z,99.90
2018-04-23T07:10:41.890Z,99.90
2018-04-23T07:13:09.456Z,99.90
2018-04-23T07:15:37.006Z,99.90
2018-04-23T07:18:04.583Z,99.90
2018-04-23T07:20:32.053Z,99.90
2018-04-23T07:22:59.571Z,99.90
2018-04-23T07:25:27.790Z,99.90
2018-04-23T07:27:55.273Z,99.90
2018-04-23T07:30:22.738Z,99.90
2018-04-23T07:32:50.226Z,99.90
2018-04-23T07:35:17.713Z,99.90
2018-04-23T07:37:45.259Z,99.90
2018-04-23T07:40:12.742Z,99.90
2018-04-23T07:42:40.199Z,99.90
2018-04-23T07:45:07.682Z,99.90
2018-04-23T07:47:35.154Z,99.90
2018-04-23T07:50:02.630Z,99.90
2018-04-23T07:52:30.123Z,99.90
2018-04-23T07:54:58.389Z,99.90
2018-04-23T07:57:25.846Z,99.90
2018-04-23T07:59:53.363Z,99.90
2018-04-23T08:02:21.571Z,99.90
2018-04-23T08:04:49.060Z,99.90
2018-04-23T08:07:16.530Z,99.90
2018-04-23T08:09:44.002Z,99.90
2018-04-23T08:12:11.511Z,99.90
2018-04-23T08:14:38.983Z,99.90
2018-04-23T08:17:07.276Z,99.90
2018-04-23T08:19:35.524Z,99.90
2018-04-23T08:22:03.104Z,99.90
2018-04-23T08:24:30.673Z,99.90
2018-04-23T08:26:58.136Z,99.90
2018-04-23T08:29:25.609Z,99.90
2018-04-23T08:31:53.099Z,99.90
2018-04-23T08:34:21.336Z,99.90
2018-04-23T08:36:48.931Z,99.90
2018-04-23T08:39:16.378Z,99.90
2018-04-23T08:41:43.846Z,99.90
2018-04-23T08:44:11.323Z,99.90
2018-04-23T08:46:38.777Z,99.90
2018-04-23T08:49:06.250Z,99.90
2018-04-23T08:51:33.743Z,99.90
2018-04-23T08:54:01.190Z,99.90
2018-04-23T08:56:28.666Z,99.90
2018-04-23T08:58:56.117Z,99.90
2018-04-23T09:01:23.678Z,99.90
2018-04-23T09:03:51.185Z,99.90
2018-04-23T09:06:18.757Z,99.90
2018-04-23T09:08:46.258Z,99.90
2018-04-23T09:11:13.824Z,99.90
2018-04-23T09:13:41.312Z,99.90
2018-04-23T09:16:09.531Z,99.90
2018-04-23T09:18:37.053Z,99.90
2018-04-23T09:21:04.615Z,99.90
2018-04-23T09:23:32.197Z,99.90
2018-04-23T09:25:59.677Z,99.90
2018-04-23T09:28:27.913Z,99.90
2018-04-23T09:30:55.399Z,99.90
2018-04-23T09:33:22.887Z,99.90
2018-04-23T09:35:50.361Z,99.90
2018-04-23T09:38:17.834Z,99.90
2018-04-23T09:40:45.317Z,99.90
2018-04-23T09:43:13.581Z,99.90
2018-04-23T09:45:41.042Z,99.90
2018-04-23T09:48:08.520Z,99.90
2018-04-23T09:50:35.984Z,99.90
2018-04-23T09:53:03.473Z,99.90
2018-04-23T09:55:30.968Z,99.90
2018-04-23T09:57:58.486Z,99.90
2018-04-23T10:03:16.679Z,99.90
2018-04-23T10:05:44.159Z,99.90
2018-04-23T10:08:12.369Z,99.90
2018-04-23T10:10:40.617Z,99.90
2018-04-23T10:13:08.085Z,99.90
2018-04-23T10:15:35.582Z,99.90
2018-04-23T10:18:03.046Z,99.90
2018-04-23T10:20:31.333Z,99.90
2018-04-23T10:22:58.813Z,99.90
2018-04-23T10:25:26.411Z,99.90
2018-04-23T10:27:53.934Z,99.90
2018-04-23T10:30:21.412Z,99.90
2018-04-23T10:32:50.397Z,99.90
2018-04-23T10:35:17.870Z,99.90
2018-04-23T10:37:45.351Z,99.90
2018-04-23T10:40:13.615Z,99.90
2018-04-23T10:42:41.089Z,99.90
2018-04-23T10:45:08.586Z,99.90
2018-04-23T10:47:36.139Z,99.90
2018-04-23T10:50:03.616Z,99.90
2018-04-23T10:52:31.069Z,99.90
2018-04-23T10:54:58.555Z,99.90
2018-04-23T10:57:26.007Z,99.90
2018-04-23T10:59:54.247Z,99.90
2018-04-23T11:02:22.467Z,99.90
2018-04-23T11:04:49.941Z,99.90
2018-04-23T11:07:17.418Z,99.90
2018-04-23T11:09:44.895Z,99.90
2018-04-23T11:12:12.348Z,99.90
2018-04-23T11:14:39.810Z,99.90
2018-04-23T11:17:07.312Z,99.90
2018-04-23T11:19:34.762Z,99.90
2018-04-23T11:22:02.241Z,98.20
2018-04-23T11:24:29.711Z,98.60
2018-04-23T11:26:57.159Z,95.70
2018-04-23T11:29:24.617Z,96.80
2018-04-23T11:31:52.098Z,95.70
2018-04-23T11:34:19.572Z,95.20
2018-04-23T11:36:47.056Z,93.90
2018-04-23T11:39:14.527Z,92.80
2018-04-23T11:41:41.994Z,87.80
2018-04-23T11:44:09.474Z,89.40
2018-04-23T11:46:36.944Z,90.20
2018-04-23T11:49:04.422Z,90.60
2018-04-23T11:51:31.872Z,90.10
2018-04-23T11:53:59.360Z,89.40
2018-04-23T11:56:27.585Z,81.10
2018-04-23T11:58:55.820Z,82.50
2018-04-23T12:01:23.274Z,82.40
2018-04-23T12:03:50.740Z,84.60
2018-04-23T12:06:18.221Z,82.40
2018-04-23T12:08:45.702Z,84.20
2018-04-23T12:11:13.176Z,88.20
2018-04-23T12:13:40.627Z,83.80
2018-04-23T12:16:08.111Z,84.30
2018-04-23T12:18:35.577Z,83.10
2018-04-23T12:21:03.064Z,77.60
2018-04-23T12:23:30.619Z,70.30
2018-04-23T12:25:58.105Z,69.40
2018-04-23T12:28:25.582Z,71.50
2018-04-23T12:30:53.076Z,65.60
2018-04-23T12:33:21.313Z,63.80
2018-04-23T12:35:48.770Z,63.70
2018-04-23T12:38:16.223Z,62.10
2018-04-23T12:40:43.696Z,59.70
2018-04-23T12:43:11.172Z,58.60
2018-04-23T12:45:38.651Z,58.20
2018-04-23T12:48:06.124Z,58.40
2018-04-23T12:50:33.593Z,58.80
2018-04-23T12:53:01.058Z,55.70
2018-04-23T12:55:28.526Z,56.20
2018-04-23T12:57:56.008Z,54.20
2018-04-23T13:00:23.481Z,55.20
2018-04-23T13:02:50.973Z,56.50
2018-04-23T13:05:18.426Z,59.20
2018-04-23T13:07:45.887Z,57.80
2018-04-23T13:10:13.419Z,58.70
2018-04-23T13:12:41.664Z,57.80
2018-04-23T13:15:09.143Z,57.80
2018-04-23T13:17:36.597Z,54.50
2018-04-23T13:20:04.059Z,52.10
2018-04-23T13:22:31.506Z,52.20
2018-04-23T13:24:58.996Z,51.10
2018-04-23T13:27:26.489Z,51.10
2018-04-23T13:29:53.965Z,52.10
2018-04-23T13:32:21.429Z,52.80
2018-04-23T13:34:48.909Z,52.80
2018-04-23T13:37:16.364Z,52.80
2018-04-23T13:39:43.837Z,50.80
2018-04-23T13:42:11.303Z,49.40
2018-04-23T13:44:38.770Z,50.90
2018-04-23T13:47:06.265Z,49.60
2018-04-23T13:49:34.505Z,49.20
2018-04-23T13:52:01.978Z,49.20
2018-04-23T13:54:29.466Z,48.10
2018-04-23T13:56:57.048Z,50.40
2018-04-23T13:59:25.225Z,50.00
2018-04-23T14:01:52.701Z,49.90
2018-04-23T14:04:20.146Z,49.20
2018-04-23T14:06:47.633Z,49.90
2018-04-23T14:09:15.114Z,50.60
2018-04-23T14:11:42.671Z,50.70
2018-04-23T14:14:10.236Z,50.60
2018-04-23T14:16:37.806Z,48.10
2018-04-23T14:19:05.259Z,48.50
2018-04-23T14:21:32.765Z,47.70
2018-04-23T14:24:00.272Z,48.40
2018-04-23T14:26:27.898Z,49.70
2018-04-23T14:28:55.345Z,48.90
2018-04-23T14:31:22.804Z,50.90
2018-04-23T14:33:50.304Z,50.50
2018-04-23T14:36:17.822Z,50.40
2018-04-23T14:38:46.051Z,50.90
2018-04-23T14:41:13.522Z,50.90
2018-04-23T14:43:40.991Z,51.60
2018-04-23T14:46:08.448Z,52.70
2018-04-23T14:48:35.911Z,51.00
2018-04-23T14:51:03.417Z,51.20
2018-04-23T14:53:31.017Z,52.20
2018-04-23T14:55:59.274Z,51.80
2018-04-23T14:58:26.736Z,51.70
2018-04-23T15:00:54.213Z,51.00
2018-04-23T15:03:21.675Z,49.70
2018-04-23T15:05:49.137Z,51.20
2018-04-23T15:08:17.346Z,52.00
2018-04-23T15:10:44.801Z,51.50
2018-04-23T15:13:12.285Z,53.00
2018-04-23T15:15:39.860Z,53.90
2018-04-23T15:21:00.100Z,52.70
2018-04-23T15:23:27.640Z,52.90
2018-04-23T15:25:55.123Z,54.70
2018-04-23T15:28:22.714Z,53.60
2018-04-23T15:30:50.194Z,54.70
2018-04-23T15:36:09.182Z,56.30
2018-04-23T15:38:36.773Z,57.10
2018-04-23T15:41:05.032Z,55.90
2018-04-23T15:43:33.310Z,56.50
2018-04-23T15:46:00.774Z,56.50
2018-04-23T15:48:28.257Z,56.40
2018-04-23T15:53:46.778Z,56.70
2018-04-23T15:56:15.018Z,57.90
2018-04-23T15:58:42.515Z,57.90
2018-04-23T16:01:09.971Z,57.70
2018-04-23T16:03:37.438Z,55.70
2018-04-23T16:06:04.894Z,55.90
2018-04-23T16:08:32.365Z,54.40
2018-04-23T16:10:59.834Z,53.90
2018-04-23T16:13:27.287Z,54.20
2018-04-23T16:15:54.743Z,54.40
2018-04-23T16:18:22.423Z,52.50
2018-04-23T16:20:49.890Z,50.80
2018-04-23T16:23:17.380Z,50.90
2018-04-23T16:25:44.865Z,50.20
2018-04-23T16:28:12.353Z,48.70
2018-04-23T16:30:39.848Z,48.50
2018-04-23T16:33:08.074Z,48.20
2018-04-23T16:35:35.550Z,48.20
2018-04-23T16:38:03.026Z,48.60
2018-04-23T16:40:30.516Z,47.60
2018-04-23T16:42:58.075Z,47.60
2018-04-23T16:45:25.533Z,47.80
2018-04-23T16:47:53.020Z,48.90
2018-04-23T16:50:20.478Z,49.60
2018-04-23T16:52:47.978Z,48.80
2018-04-23T16:55:16.258Z,47.60
2018-04-23T16:57:43.813Z,47.60
2018-04-23T17:00:11.298Z,48.30
2018-04-23T17:02:38.752Z,48.30
2018-04-23T17:05:06.230Z,47.80
2018-04-23T17:07:33.675Z,48.20
2018-04-23T17:10:01.143Z,48.30
2018-04-23T17:12:28.622Z,49.10
2018-04-23T17:14:56.082Z,49.60
2018-04-23T17:17:23.541Z,50.00
2018-04-23T17:19:51.016Z,49.80
2018-04-23T17:22:18.510Z,48.60
2018-04-23T17:27:36.824Z,48.90
2018-04-23T17:30:04.297Z,49.80
2018-04-23T17:32:31.762Z,49.60
2018-04-23T17:34:59.257Z,49.30
2018-04-23T17:37:27.486Z,50.10
2018-04-23T17:39:54.961Z,50.00
2018-04-23T17:42:22.432Z,50.70
2018-04-23T17:44:49.907Z,50.30
2018-04-23T17:47:17.359Z,51.20
2018-04-23T17:49:44.819Z,52.00
2018-04-23T17:52:12.293Z,53.40
2018-04-23T17:57:30.400Z,54.30
2018-04-23T17:59:57.884Z,55.20
2018-04-23T18:02:25.338Z,56.00
2018-04-23T18:04:52.849Z,56.70
2018-04-23T18:07:21.074Z,58.00
2018-04-23T18:09:50.302Z,57.90
2018-04-23T18:12:17.793Z,58.50
2018-04-23T18:14:45.254Z,59.30
2018-04-23T18:20:04.216Z,60.60
2018-04-23T18:22:31.704Z,60.90
2018-04-23T18:24:59.173Z,61.50
2018-04-23T18:27:26.639Z,62.00
2018-04-23T18:29:54.078Z,63.80
2018-04-23T18:32:21.570Z,63.70
2018-04-23T18:34:49.026Z,64.30
2018-04-23T18:37:16.469Z,64.40
2018-04-23T18:39:44.695Z,65.50
2018-04-23T18:42:12.183Z,65.20
2018-04-23T18:44:39.715Z,65.60
2018-04-23T18:47:08.811Z,66.90
2018-04-23T18:49:37.033Z,68.20
2018-04-23T18:52:04.484Z,68.10
2018-04-23T18:54:31.928Z,71.60
2018-04-23T18:57:00.160Z,70.60
2018-04-23T18:59:27.624Z,70.60
2018-04-23T19:04:45.807Z,77.40
2018-04-23T19:07:13.278Z,74.90
2018-04-23T19:09:40.740Z,76.80
2018-04-23T19:12:08.236Z,78.30
2018-04-23T19:14:35.697Z,78.70
2018-04-23T19:17:03.154Z,79.30
2018-04-23T19:19:30.620Z,82.10
2018-04-23T19:21:58.193Z,83.60
2018-04-23T19:24:25.565Z,87.30
2018-04-23T19:26:53.018Z,92.10
2018-04-23T19:29:20.475Z,92.80
2018-04-23T19:31:48.725Z,95.70
2018-04-23T19:34:16.180Z,95.60
2018-04-23T19:36:43.635Z,98.20
2018-04-23T19:39:11.126Z,99.90
2018-04-23T19:41:38.579Z,99.90
2018-04-23T19:44:06.047Z,99.90
2018-04-23T19:46:33.485Z,99.90
2018-04-23T19:49:00.963Z,99.90
2018-04-23T19:51:28.418Z,99.90
2018-04-23T19:53:56.653Z,99.90
2018-04-23T19:56:24.152Z,99.90
2018-04-23T20:01:42.637Z,99.90
2018-04-23T20:04:10.116Z,99.90
2018-04-23T20:06:37.596Z,99.90
2018-04-23T20:09:05.813Z,99.90
2018-04-23T20:11:33.291Z,99.90
2018-04-23T20:14:00.742Z,99.90
2018-04-23T20:16:28.219Z,99.90
2018-04-23T20:18:55.683Z,99.90
2018-04-23T20:21:23.180Z,99.90
2018-04-23T20:23:50.655Z,99.90
2018-04-23T20:26:18.140Z,99.90
2018-04-23T20:28:45.604Z,99.90
2018-04-23T20:31:13.068Z,99.90
2018-04-23T20:33:40.550Z,99.90
2018-04-23T20:36:08.069Z,99.90
2018-04-23T20:38:36.289Z,99.90
2018-04-23T20:41:03.746Z,99.90
2018-04-23T20:43:31.209Z,99.90
2018-04-23T20:45:58.666Z,99.90
2018-04-23T20:48:26.113Z,99.90
2018-04-23T20:50:54.376Z,99.90
2018-04-23T20:53:21.828Z,99.90
2018-04-23T20:55:49.304Z,99.90
2018-04-23T20:58:16.774Z,99.90
2018-04-23T21:00:44.276Z,99.90
2018-04-23T21:03:12.516Z,99.90
2018-04-23T21:11:20.839Z,99.90
2018-04-23T21:13:48.309Z,99.90
2018-04-23T21:16:15.772Z,99.90
2018-04-23T21:18:43.238Z,99.90
2018-04-23T21:21:10.717Z,99.90
2018-04-23T21:23:38.194Z,99.90
2018-04-23T21:26:06.209Z,99.90
2018-04-23T21:28:33.675Z,99.90
2018-04-23T21:31:01.308Z,99.90
2018-04-23T21:33:28.871Z,99.90
2018-04-23T21:35:56.343Z,99.90
2018-04-23T21:38:23.803Z,99.90
2018-04-23T21:40:51.271Z,99.90
2018-04-23T21:43:18.721Z,99.90
2018-04-23T21:45:46.187Z,99.90
2018-04-23T21:48:13.659Z,99.90
2018-04-23T21:50:41.144Z,99.90
2018-04-23T21:53:08.625Z,99.90
2018-04-23T21:55:36.104Z,99.90
2018-04-23T21:58:03.576Z,99.90
2018-04-23T22:00:31.156Z,99.90
2018-04-23T22:02:58.706Z,99.90
2018-04-23T22:05:26.256Z,99.90
2018-04-23T22:07:54.450Z,99.90
2018-04-23T22:10:21.906Z,99.90
2018-04-23T22:12:49.377Z,99.90
2018-04-23T22:15:16.838Z,99.90
2018-04-23T22:17:44.333Z,99.90
2018-04-23T22:20:11.790Z,99.90
2018-04-23T22:22:39.281Z,99.90
2018-04-23T22:25:06.849Z,99.90
2018-04-23T22:27:34.318Z,99.90
2018-04-23T22:30:01.777Z,99.90
2018-04-23T22:32:29.261Z,99.90
2018-04-23T22:34:56.764Z,99.90
2018-04-23T22:37:24.998Z,99.90
2018-04-23T22:39:52.472Z,99.90
2018-04-23T22:42:19.974Z,99.90
2018-04-23T22:44:47.438Z,99.90
2018-04-23T22:47:15.021Z,99.90
2018-04-23T22:49:42.581Z,99.90
2018-04-23T22:52:10.060Z,99.90
2018-04-23T22:54:37.629Z,99.90
2018-04-23T22:57:05.082Z,99.90
2018-04-23T22:59:32.573Z,99.90
2018-04-23T23:02:00.137Z,99.90
2018-04-23T23:04:27.695Z,99.90
2018-04-23T23:06:55.173Z,99.90
2018-04-23T23:09:22.645Z,99.90
2018-04-23T23:11:50.119Z,99.90
2018-04-23T23:14:17.678Z,99.90
2018-04-23T23:16:45.265Z,99.90
2018-04-23T23:19:14.271Z,99.90
2018-04-23T23:21:41.730Z,99.90
2018-04-23T23:24:09.202Z,99.90
2018-04-23T23:26:36.669Z,99.90
2018-04-23T23:29:04.117Z,99.90
2018-04-23T23:31:31.607Z,99.90
2018-04-23T23:33:59.083Z,99.90
2018-04-23T23:36:26.543Z,99.90
2018-04-23T23:38:54.010Z,99.90
2018-04-23T23:41:21.461Z,99.90
2018-04-23T23:43:48.949Z,99.90
2018-04-23T23:46:16.419Z,99.90
2018-04-23T23:48:43.916Z,99.90
2018-04-23T23:51:11.382Z,99.90
2018-04-23T23:53:38.924Z,99.90
2018-04-23T23:56:06.400Z,99.90
2018-04-23T23:58:33.884Z,99.90
